createdAt,value
2023-03-03T00:01:01.427Z,74.60
2023-03-03T00:03:29.558Z,73.30
2023-03-03T00:05:57.356Z,69.10
2023-03-03T00:08:25.433Z,69.80
2023-03-03T00:10:54.930Z,69.00
2023-03-03T00:13:24.938Z,68.90
2023-03-03T00:15:53.831Z,68.00
2023-03-03T00:18:40.298Z,69.50
2023-03-03T00:21:22.122Z,74.70
2023-03-03T00:23:50.035Z,78.30
2023-03-03T00:26:24.740Z,73.40
2023-03-03T00:28:54.104Z,67.30
2023-03-03T00:31:30.135Z,69.20
2023-03-03T00:34:02.534Z,69.40
2023-03-03T00:36:37.423Z,72.70
2023-03-03T00:39:33.164Z,69.00
2023-03-03T00:42:03.840Z,67.70
2023-03-03T00:44:42.340Z,68.40
2023-03-03T00:47:37.703Z,65.80
2023-03-03T00:50:10.813Z,64.60
2023-03-03T00:52:40.390Z,68.00
2023-03-03T00:55:08.320Z,64.10
2023-03-03T00:57:35.578Z,65.10
2023-03-03T01:00:04.849Z,67.10
2023-03-03T01:02:32.507Z,64.70
2023-03-03T01:04:59.842Z,71.50
2023-03-03T01:07:27.581Z,73.20
2023-03-03T01:09:55.389Z,70.60
2023-03-03T01:12:23.543Z,66.60
2023-03-03T01:14:52.396Z,67.50
2023-03-03T01:17:19.532Z,68.80
2023-03-03T01:19:46.700Z,67.50
2023-03-03T01:22:13.915Z,68.20
2023-03-03T01:24:41.029Z,68.70
2023-03-03T01:27:08.266Z,71.40
2023-03-03T01:29:35.385Z,72.40
2023-03-03T01:32:02.599Z,71.40
2023-03-03T01:34:29.722Z,73.40
2023-03-03T01:36:56.874Z,71.40
2023-03-03T01:39:24.027Z,73.20
2023-03-03T01:41:51.116Z,86.30
2023-03-03T01:44:18.538Z,76.00
2023-03-03T01:47:06.469Z,70.60
2023-03-03T01:49:47.081Z,67.80
2023-03-03T01:52:33.672Z,66.90
2023-03-03T01:55:10.909Z,68.30
2023-03-03T01:57:42.925Z,64.80
2023-03-03T02:00:11.535Z,63.20
2023-03-03T02:02:42.621Z,71.90
2023-03-03T02:05:10.616Z,74.60
2023-03-03T02:07:38.577Z,73.80
2023-03-03T02:10:19.135Z,76.30
2023-03-03T02:12:49.549Z,73.60
2023-03-03T02:15:17.868Z,75.40
2023-03-03T02:17:47.812Z,83.90
2023-03-03T02:20:26.276Z,84.10
2023-03-03T02:23:05.636Z,79.50
2023-03-03T02:25:54.480Z,77.40
2023-03-03T02:28:23.936Z,79.90
2023-03-03T02:30:54.972Z,77.00
2023-03-03T02:33:22.187Z,75.10
2023-03-03T02:35:50.082Z,72.90
2023-03-03T02:38:20.389Z,68.30
2023-03-03T02:40:59.457Z,66.50
2023-03-03T02:43:48.428Z,66.10
2023-03-03T02:46:15.475Z,64.80
2023-03-03T02:48:42.582Z,63.20
2023-03-03T02:51:09.731Z,65.30
2023-03-03T02:53:36.799Z,62.40
2023-03-03T02:56:04.263Z,62.00
2023-03-03T02:58:31.192Z,63.90
2023-03-03T03:00:58.120Z,60.50
2023-03-03T03:03:25.243Z,64.20
2023-03-03T03:05:52.625Z,61.70
2023-03-03T03:08:20.280Z,66.60
2023-03-03T03:10:47.807Z,81.50
2023-03-03T03:13:15.088Z,83.80
2023-03-03T03:15:46.261Z,71.20
2023-03-03T03:18:14.665Z,67.90
2023-03-03T03:20:42.523Z,66.10
2023-03-03T03:23:11.218Z,66.90
2023-03-03T03:25:44.610Z,63.00
2023-03-03T03:28:16.540Z,62.60
2023-03-03T03:30:45.195Z,63.80
2023-03-03T03:33:12.901Z,61.70
2023-03-03T03:35:44.907Z,64.40
2023-03-03T03:38:13.874Z,65.10
2023-03-03T03:40:43.166Z,67.20
2023-03-03T03:43:10.077Z,68.40
2023-03-03T03:45:37.093Z,66.40
2023-03-03T03:48:05.132Z,69.30
2023-03-03T03:50:32.421Z,66.00
2023-03-03T03:52:59.544Z,70.60
2023-03-03T03:55:27.300Z,66.90
2023-03-03T03:57:56.014Z,66.70
2023-03-03T04:00:23.632Z,67.90
2023-03-03T04:02:51.800Z,63.10
2023-03-03T04:05:19.361Z,70.30
2023-03-03T04:07:46.962Z,66.10
2023-03-03T04:10:14.959Z,64.80
2023-03-03T04:12:42.413Z,62.00
2023-03-03T04:15:14.622Z,64.40
2023-03-03T04:17:42.896Z,67.30
2023-03-03T04:20:13.702Z,66.70
2023-03-03T04:22:41.915Z,65.10
2023-03-03T04:25:13.900Z,68.80
2023-03-03T04:27:42.611Z,66.60
2023-03-03T04:30:12.105Z,66.60
2023-03-03T04:32:39.349Z,66.80
2023-03-03T04:35:09.176Z,65.30
2023-03-03T04:37:38.542Z,64.60
2023-03-03T04:40:09.327Z,64.30
2023-03-03T04:42:37.157Z,66.10
2023-03-03T04:45:05.361Z,65.20
2023-03-03T04:47:33.126Z,66.40
2023-03-03T04:50:00.550Z,65.30
2023-03-03T04:52:28.494Z,67.50
2023-03-03T04:54:56.005Z,66.80
2023-03-03T04:57:23.233Z,64.40
2023-03-03T04:59:51.642Z,69.90
2023-03-03T05:02:19.525Z,69.30
2023-03-03T05:04:46.822Z,66.90
2023-03-03T05:07:13.868Z,69.50
2023-03-03T05:09:40.875Z,67.10
2023-03-03T05:12:07.929Z,71.10
2023-03-03T05:14:35.165Z,72.80
2023-03-03T05:17:05.346Z,70.20
2023-03-03T05:19:34.379Z,74.20
2023-03-03T05:22:01.752Z,77.80
2023-03-03T05:24:28.993Z,77.60
2023-03-03T05:26:56.042Z,79.30
2023-03-03T05:29:23.016Z,86.00
2023-03-03T05:31:50.116Z,80.10
2023-03-03T05:34:17.168Z,82.90
2023-03-03T05:36:44.227Z,85.40
2023-03-03T05:39:11.172Z,85.90
2023-03-03T05:41:38.283Z,79.70
2023-03-03T05:44:05.823Z,77.10
2023-03-03T05:46:32.756Z,83.50
2023-03-03T05:49:00.361Z,80.70
2023-03-03T05:51:27.461Z,81.60
2023-03-03T05:53:56.436Z,82.10
2023-03-03T05:56:23.805Z,77.50
2023-03-03T05:58:50.780Z,81.20
2023-03-03T06:01:17.925Z,77.30
2023-03-03T06:03:45.004Z,83.30
2023-03-03T06:06:13.637Z,89.70
2023-03-03T06:08:40.598Z,83.50
2023-03-03T06:11:07.773Z,88.40
2023-03-03T06:13:35.034Z,89.90
2023-03-03T06:16:02.489Z,96.40
2023-03-03T06:18:29.751Z,97.30
2023-03-03T06:20:56.767Z,104.30
2023-03-03T06:23:23.837Z,126.40
2023-03-03T06:25:51.068Z,144.90
2023-03-03T06:28:18.215Z,125.30
2023-03-03T06:30:45.173Z,105.40
2023-03-03T06:33:12.272Z,108.60
2023-03-03T06:35:39.288Z,105.50
2023-03-03T06:38:06.270Z,101.30
2023-03-03T06:40:33.362Z,105.80
2023-03-03T06:43:02.701Z,104.30
2023-03-03T06:45:29.865Z,102.00
2023-03-03T06:47:56.948Z,99.90
2023-03-03T06:50:23.795Z,102.80
2023-03-03T06:53:07.147Z,111.90
2023-03-03T06:55:34.321Z,115.00
2023-03-03T06:58:02.476Z,107.50
2023-03-03T07:00:31.209Z,108.10
2023-03-03T07:03:11.793Z,108.00
2023-03-03T07:05:38.909Z,109.80
2023-03-03T07:08:12.697Z,107.60
2023-03-03T07:10:39.821Z,102.70
2023-03-03T07:13:28.189Z,106.90
2023-03-03T07:16:11.237Z,108.50
2023-03-03T07:18:53.290Z,107.80
2023-03-03T07:21:23.060Z,105.90
2023-03-03T07:23:52.180Z,104.60
2023-03-03T07:26:30.126Z,165.30
2023-03-03T07:29:14.893Z,112.30
2023-03-03T07:31:47.245Z,117.40
2023-03-03T07:34:18.683Z,131.60
2023-03-03T07:36:45.785Z,106.50
2023-03-03T07:39:40.270Z,101.20
2023-03-03T07:42:28.623Z,93.30
2023-03-03T07:45:28.240Z,91.10
2023-03-03T07:48:21.030Z,88.80
2023-03-03T07:50:49.456Z,87.00
2023-03-03T07:53:36.815Z,89.10
2023-03-03T07:56:24.982Z,91.60
2023-03-03T07:58:52.663Z,84.70
2023-03-03T08:01:28.765Z,78.10
2023-03-03T08:03:56.332Z,77.00
2023-03-03T08:06:35.438Z,79.60
2023-03-03T08:09:29.251Z,78.10
2023-03-03T08:12:15.175Z,79.80
2023-03-03T08:14:42.237Z,80.30
2023-03-03T08:17:30.636Z,82.00
2023-03-03T08:19:57.650Z,91.80
2023-03-03T08:22:33.343Z,85.80
2023-03-03T08:25:00.526Z,86.60
2023-03-03T08:27:27.669Z,85.20
2023-03-03T08:29:54.749Z,78.30
2023-03-03T08:32:22.292Z,82.30
2023-03-03T08:34:49.323Z,75.80
2023-03-03T08:37:16.270Z,74.30
2023-03-03T08:39:43.654Z,76.10
2023-03-03T08:42:10.559Z,73.70
2023-03-03T08:44:37.761Z,64.80
2023-03-03T08:47:05.677Z,67.40
2023-03-03T08:49:33.081Z,64.50
2023-03-03T08:52:01.176Z,78.50
2023-03-03T08:54:28.747Z,78.30
2023-03-03T08:56:55.687Z,76.70
2023-03-03T08:59:22.631Z,77.30
2023-03-03T09:01:49.674Z,76.70
2023-03-03T09:04:16.771Z,78.80
2023-03-03T09:06:43.862Z,72.70
2023-03-03T09:09:11.190Z,74.70
2023-03-03T09:11:38.344Z,75.90
2023-03-03T09:14:15.570Z,71.20
2023-03-03T09:16:54.767Z,66.00
2023-03-03T09:19:39.840Z,57.20
2023-03-03T09:22:16.173Z,55.80
2023-03-03T09:24:43.285Z,57.20
2023-03-03T09:27:26.836Z,55.80
2023-03-03T09:29:56.990Z,54.90
2023-03-03T09:32:35.195Z,56.50
2023-03-03T09:35:38.477Z,52.90
2023-03-03T09:38:27.479Z,56.50
2023-03-03T09:41:27.916Z,54.80
2023-03-03T09:44:07.321Z,53.90
2023-03-03T09:46:38.805Z,53.50
2023-03-03T09:49:15.260Z,52.40
2023-03-03T09:51:45.303Z,55.20
2023-03-03T09:54:21.086Z,53.20
2023-03-03T09:56:59.056Z,55.60
2023-03-03T09:59:29.426Z,54.60
2023-03-03T10:02:25.009Z,61.60
2023-03-03T10:07:49.478Z,57.30
2023-03-03T10:10:25.506Z,60.40
2023-03-03T10:13:20.838Z,53.90
2023-03-03T10:16:31.709Z,56.50
2023-03-03T10:19:03.223Z,57.40
2023-03-03T10:22:10.667Z,57.10
2023-03-03T10:25:22.991Z,59.70
2023-03-03T10:28:37.347Z,59.40
2023-03-03T10:31:42.604Z,65.70
2023-03-03T10:34:56.501Z,63.60
2023-03-03T10:37:43.010Z,63.80
2023-03-03T10:40:24.990Z,66.90
2023-03-03T10:43:13.740Z,62.60
2023-03-03T10:46:03.506Z,62.50
2023-03-03T10:48:51.499Z,58.90
2023-03-03T10:51:41.812Z,53.00
2023-03-03T10:54:24.209Z,53.50
2023-03-03T10:57:13.110Z,51.50
2023-03-03T11:00:00.820Z,51.30
2023-03-03T11:02:39.249Z,48.20
2023-03-03T11:05:54.240Z,53.60
2023-03-03T11:08:44.341Z,54.20
2023-03-03T11:11:14.517Z,51.50
2023-03-03T11:13:46.312Z,56.30
2023-03-03T11:16:26.338Z,51.40
2023-03-03T11:19:08.915Z,58.00
2023-03-03T11:22:04.833Z,53.60
2023-03-03T11:25:03.094Z,57.50
2023-03-03T11:27:36.338Z,61.00
2023-03-03T11:30:40.996Z,62.60
2023-03-03T11:33:41.290Z,62.10
2023-03-03T11:36:22.878Z,61.30
2023-03-03T11:39:17.029Z,65.60
2023-03-03T11:42:16.598Z,66.00
2023-03-03T11:45:11.854Z,66.00
2023-03-03T11:47:50.801Z,66.10
2023-03-03T11:50:53.266Z,61.00
2023-03-03T11:53:29.313Z,58.20
2023-03-03T11:56:07.115Z,57.60
2023-03-03T11:59:18.689Z,53.50
2023-03-03T12:01:57.722Z,58.50
2023-03-03T12:04:36.505Z,58.10
2023-03-03T12:08:10.487Z,61.90
2023-03-03T12:10:55.129Z,57.80
2023-03-03T12:13:44.286Z,57.30
2023-03-03T12:16:23.856Z,58.90
2023-03-03T12:18:59.736Z,56.20
2023-03-03T12:21:39.089Z,55.00
2023-03-03T12:24:25.067Z,58.50
2023-03-03T12:27:09.977Z,56.10
2023-03-03T12:33:42.222Z,57.60
2023-03-03T12:36:45.673Z,60.30
2023-03-03T12:39:34.682Z,56.80
2023-03-03T12:42:41.448Z,60.60
2023-03-03T12:45:43.437Z,54.30
2023-03-03T12:48:19.816Z,51.10
2023-03-03T12:51:14.881Z,51.00
2023-03-03T12:54:19.716Z,51.00
2023-03-03T12:56:57.825Z,54.40
2023-03-03T13:00:22.772Z,54.60
2023-03-03T13:03:08.727Z,51.10
2023-03-03T13:05:55.180Z,50.90
2023-03-03T13:08:32.044Z,49.70
2023-03-03T13:11:05.405Z,48.80
2023-03-03T13:13:44.475Z,47.10
2023-03-03T13:16:17.362Z,49.50
2023-03-03T13:18:49.264Z,50.20
2023-03-03T13:21:31.492Z,46.80
2023-03-03T13:24:17.837Z,45.20
2023-03-03T13:26:58.180Z,47.20
2023-03-03T13:30:04.460Z,46.60
2023-03-03T13:32:43.186Z,54.10
2023-03-03T13:35:46.684Z,58.10
2023-03-03T13:38:42.525Z,65.20
2023-03-03T13:43:59.610Z,62.10
2023-03-03T13:47:00.952Z,66.50
2023-03-03T13:49:47.586Z,60.80
2023-03-03T13:52:20.804Z,67.10
2023-03-03T13:55:12.192Z,60.40
2023-03-03T13:57:42.053Z,62.30
2023-03-03T14:00:40.208Z,61.40
2023-03-03T14:03:46.016Z,53.70
2023-03-03T14:06:29.389Z,52.50
2023-03-03T14:09:10.859Z,54.40
2023-03-03T14:12:11.980Z,55.00
2023-03-03T14:14:46.924Z,51.00
2023-03-03T14:17:31.047Z,51.80
2023-03-03T14:20:23.248Z,54.40
2023-03-03T14:22:58.149Z,52.60
2023-03-03T14:25:25.275Z,52.70
2023-03-03T14:28:03.924Z,52.30
2023-03-03T14:30:33.199Z,49.10
2023-03-03T14:33:08.676Z,47.80
2023-03-03T14:35:42.026Z,49.70
2023-03-03T14:38:22.688Z,43.20
2023-03-03T14:41:05.923Z,42.90
2023-03-03T14:43:36.940Z,41.50
2023-03-03T14:46:36.876Z,41.60
2023-03-03T14:49:12.778Z,43.40
2023-03-03T14:51:40.132Z,39.40
2023-03-03T14:54:18.676Z,41.20
2023-03-03T14:57:15.715Z,41.60
2023-03-03T15:00:16.109Z,42.60
2023-03-03T15:02:52.365Z,41.90
2023-03-03T15:05:30.823Z,43.60
2023-03-03T15:08:03.635Z,38.80
2023-03-03T15:10:41.573Z,42.50
2023-03-03T15:13:20.742Z,42.30
2023-03-03T15:16:04.382Z,41.50
2023-03-03T15:18:32.875Z,43.00
2023-03-03T15:21:07.757Z,38.60
2023-03-03T15:23:43.735Z,41.40
2023-03-03T15:26:33.675Z,38.30
2023-03-03T15:29:24.344Z,38.20
2023-03-03T15:32:22.549Z,43.70
2023-03-03T15:35:27.780Z,50.10
2023-03-03T15:38:21.125Z,43.90
2023-03-03T15:41:01.742Z,41.50
2023-03-03T15:43:38.573Z,43.70
2023-03-03T15:46:11.768Z,42.20
2023-03-03T15:48:53.346Z,44.00
2023-03-03T15:51:23.331Z,41.20
2023-03-03T15:54:21.104Z,43.10
2023-03-03T15:56:53.340Z,38.90
2023-03-03T15:59:32.486Z,40.90
2023-03-03T16:02:19.822Z,40.70
2023-03-03T16:04:53.896Z,38.50
2023-03-03T16:08:03.021Z,40.50
2023-03-03T16:10:55.071Z,37.90
2023-03-03T16:13:36.677Z,38.30
2023-03-03T16:16:29.114Z,36.90
2023-03-03T16:19:33.739Z,37.20
2023-03-03T16:22:36.210Z,36.40
2023-03-03T16:25:26.573Z,35.30
2023-03-03T16:27:53.626Z,36.90
2023-03-03T16:30:26.899Z,35.10
2023-03-03T16:33:08.800Z,35.50
2023-03-03T16:35:47.213Z,34.90
2023-03-03T16:38:25.120Z,36.90
2023-03-03T16:40:58.606Z,35.70
2023-03-03T16:43:28.642Z,37.10
2023-03-03T16:46:02.181Z,35.90
2023-03-03T16:49:01.468Z,35.40
2023-03-03T16:51:48.077Z,35.30
2023-03-03T16:54:32.936Z,36.00
2023-03-03T16:57:44.061Z,37.10
2023-03-03T17:00:21.078Z,36.70
2023-03-03T17:02:57.089Z,37.60
2023-03-03T17:06:02.138Z,45.30
2023-03-03T17:08:52.976Z,42.10
2023-03-03T17:11:28.357Z,40.20
2023-03-03T17:14:07.026Z,45.70
2023-03-03T17:17:00.382Z,39.70
2023-03-03T17:19:45.738Z,39.50
2023-03-03T17:22:39.134Z,40.40
2023-03-03T17:25:45.444Z,41.40
2023-03-03T17:28:34.916Z,40.60
2023-03-03T17:31:31.599Z,41.10
2023-03-03T17:34:41.836Z,42.50
2023-03-03T17:37:14.525Z,40.40
2023-03-03T17:39:59.395Z,41.80
2023-03-03T17:42:44.903Z,41.10
2023-03-03T17:45:16.704Z,46.60
2023-03-03T17:47:55.666Z,40.90
2023-03-03T17:50:34.816Z,42.10
2023-03-03T17:53:28.492Z,42.60
2023-03-03T17:56:09.264Z,40.00
2023-03-03T17:59:11.421Z,42.10
2023-03-03T18:02:00.016Z,41.30
2023-03-03T18:04:35.904Z,39.60
2023-03-03T18:07:21.328Z,42.70
2023-03-03T18:10:12.412Z,41.30
2023-03-03T18:13:26.234Z,37.00
2023-03-03T18:16:14.738Z,38.90
2023-03-03T18:18:50.800Z,35.70
2023-03-03T18:21:26.869Z,36.10
2023-03-03T18:24:33.457Z,36.00
2023-03-03T18:27:36.839Z,36.00
2023-03-03T18:30:20.871Z,36.30
2023-03-03T18:32:56.903Z,34.80
2023-03-03T18:35:41.244Z,36.40
2023-03-03T18:38:17.528Z,35.60
2023-03-03T18:40:52.549Z,35.60
2023-03-03T18:43:44.749Z,38.70
2023-03-03T18:46:24.429Z,36.60
2023-03-03T18:48:57.113Z,36.70
2023-03-03T18:51:39.188Z,33.70
2023-03-03T18:54:16.378Z,35.30
2023-03-03T18:57:04.444Z,36.30
2023-03-03T18:59:34.530Z,46.20
2023-03-03T19:02:20.512Z,43.10
2023-03-03T19:04:55.775Z,52.30
2023-03-03T19:07:42.806Z,46.80
2023-03-03T19:10:18.680Z,46.70
2023-03-03T19:12:51.657Z,48.90
2023-03-03T19:15:31.460Z,40.30
2023-03-03T19:17:59.850Z,36.70
2023-03-03T19:20:40.102Z,39.40
2023-03-03T19:23:44.882Z,36.40
2023-03-03T19:26:47.519Z,36.30
2023-03-03T19:29:14.424Z,35.00
2023-03-03T19:32:15.646Z,35.30
2023-03-03T19:35:06.005Z,33.80
2023-03-03T19:37:47.937Z,36.80
2023-03-03T19:40:43.244Z,33.80
2023-03-03T19:43:30.824Z,33.70
2023-03-03T19:46:06.865Z,33.70
2023-03-03T19:48:47.859Z,32.80
2023-03-03T19:51:49.444Z,34.40
2023-03-03T19:54:49.027Z,32.90
2023-03-03T19:57:43.282Z,37.50
2023-03-03T20:00:42.677Z,36.60
2023-03-03T20:03:36.807Z,38.70
2023-03-03T20:06:29.446Z,34.40
2023-03-03T20:09:35.400Z,34.00
2023-03-03T20:12:41.039Z,33.90
2023-03-03T20:15:23.652Z,34.50
2023-03-03T20:17:59.008Z,37.10
2023-03-03T20:20:48.591Z,32.50
2023-03-03T20:24:09.617Z,32.50
2023-03-03T20:26:42.415Z,32.10
2023-03-03T20:29:32.857Z,35.80
2023-03-03T20:32:18.051Z,42.40
2023-03-03T20:35:02.972Z,32.80
2023-03-03T20:37:44.086Z,34.80
2023-03-03T20:40:37.711Z,35.10
2023-03-03T20:43:38.654Z,32.40
2023-03-03T20:46:40.950Z,30.70
2023-03-03T20:49:35.743Z,35.90
2023-03-03T20:52:26.990Z,36.10
2023-03-03T20:55:22.815Z,30.50
2023-03-03T20:57:55.800Z,32.10
2023-03-03T21:01:03.655Z,32.00
2023-03-03T21:03:37.708Z,29.90
2023-03-03T21:06:14.631Z,35.70
2023-03-03T21:08:54.419Z,34.40
2023-03-03T21:11:30.549Z,33.90
2023-03-03T21:13:59.463Z,33.60
2023-03-03T21:16:26.404Z,32.10
2023-03-03T21:19:10.166Z,34.80
2023-03-03T21:21:46.479Z,30.80
2023-03-03T21:24:18.957Z,34.00
2023-03-03T21:26:49.855Z,33.80
2023-03-03T21:29:27.613Z,33.40
2023-03-03T21:32:06.017Z,33.50
2023-03-03T21:34:33.371Z,35.80
2023-03-03T21:37:03.618Z,32.20
2023-03-03T21:39:32.122Z,38.70
2023-03-03T21:42:38.453Z,36.00
2023-03-03T21:47:36.525Z,36.50
2023-03-03T21:50:03.834Z,37.50
2023-03-03T21:52:32.265Z,34.40
2023-03-03T21:54:59.149Z,35.30
2023-03-03T21:57:26.287Z,34.70
2023-03-03T21:59:53.486Z,35.70
2023-03-03T22:02:20.465Z,34.40
2023-03-03T22:04:47.725Z,33.30
2023-03-03T22:07:14.787Z,33.70
2023-03-03T22:09:41.830Z,33.90
2023-03-03T22:12:08.967Z,39.80
2023-03-03T22:14:35.969Z,39.30
2023-03-03T22:17:02.981Z,35.80
2023-03-03T22:19:30.783Z,35.00
2023-03-03T22:21:57.855Z,31.90
2023-03-03T22:24:24.882Z,32.00
2023-03-03T22:26:51.828Z,29.10
2023-03-03T22:29:22.146Z,31.40
2023-03-03T22:31:50.347Z,32.10
2023-03-03T22:34:17.844Z,28.90
2023-03-03T22:36:44.852Z,29.70
2023-03-03T22:39:11.786Z,31.50
2023-03-03T22:41:38.756Z,30.40
2023-03-03T22:44:05.757Z,30.50
2023-03-03T22:46:32.708Z,32.40
2023-03-03T22:48:59.721Z,32.60
2023-03-03T22:51:26.820Z,30.30
2023-03-03T22:53:53.785Z,31.90
2023-03-03T22:56:20.741Z,31.00
2023-03-03T22:58:48.932Z,30.90
2023-03-03T23:01:15.921Z,32.40
2023-03-03T23:03:42.863Z,30.90
2023-03-03T23:06:09.809Z,31.40
2023-03-03T23:08:36.731Z,28.20
2023-03-03T23:11:03.903Z,31.80
2023-03-03T23:13:31.843Z,30.90
2023-03-03T23:15:59.591Z,31.60
2023-03-03T23:18:27.931Z,31.50
2023-03-03T23:20:55.773Z,32.30
2023-03-03T23:23:22.778Z,32.00
2023-03-03T23:25:49.841Z,31.60
2023-03-03T23:28:18.574Z,32.60
2023-03-03T23:30:45.571Z,31.70
2023-03-03T23:33:12.488Z,32.00
2023-03-03T23:35:39.757Z,33.90
2023-03-03T23:38:07.007Z,32.30
2023-03-03T23:40:34.288Z,31.00
2023-03-03T23:43:01.387Z,31.30
2023-03-03T23:45:28.436Z,30.60
2023-03-03T23:47:55.959Z,34.70
2023-03-03T23:50:23.124Z,33.10
2023-03-03T23:52:50.364Z,35.70
2023-03-03T23:55:17.471Z,33.80
2023-03-03T23:57:44.507Z,35.20
